createdAt,value
2017-09-30T00:01:49.396Z,19.20
2017-09-30T00:04:18.619Z,19.30
2017-09-30T00:06:47.912Z,19.40
2017-09-30T00:09:17.383Z,19.50
2017-09-30T00:11:47.064Z,19.60
2017-09-30T00:14:16.466Z,19.60
2017-09-30T00:16:47.627Z,19.70
2017-09-30T00:19:16.836Z,19.70
2017-09-30T00:21:46.344Z,19.80
2017-09-30T00:24:15.833Z,19.60
2017-09-30T00:26:45.829Z,19.70
2017-09-30T00:29:15.096Z,19.70
2017-09-30T00:31:44.486Z,19.80
2017-09-30T00:34:13.745Z,19.70
2017-09-30T00:36:43.702Z,19.60
2017-09-30T00:39:13.260Z,19.60
2017-09-30T00:41:43.349Z,19.50
2017-09-30T00:44:12.502Z,19.50
2017-09-30T00:46:41.672Z,19.40
2017-09-30T00:49:11.896Z,19.10
2017-09-30T00:51:41.914Z,19.20
2017-09-30T00:54:12.460Z,19.30
2017-09-30T00:56:42.169Z,19.20
2017-09-30T00:59:12.830Z,19.20
2017-09-30T01:01:42.214Z,19.20
2017-09-30T01:04:11.365Z,19.30
2017-09-30T01:06:40.561Z,19.10
2017-09-30T01:09:09.869Z,19.00
2017-09-30T01:11:39.179Z,18.70
2017-09-30T01:14:08.805Z,18.50
2017-09-30T01:16:38.228Z,18.50
2017-09-30T01:19:07.675Z,18.50
2017-09-30T01:21:37.253Z,18.50
2017-09-30T01:24:06.464Z,18.50
2017-09-30T01:26:35.693Z,18.40
2017-09-30T01:29:08.589Z,18.30
2017-09-30T01:31:38.210Z,18.30
2017-09-30T01:34:07.305Z,18.20
2017-09-30T01:36:36.620Z,18.10
2017-09-30T01:39:06.257Z,18.00
2017-09-30T01:41:35.337Z,17.90
2017-09-30T01:44:05.000Z,17.70
2017-09-30T01:46:34.335Z,17.70
2017-09-30T01:49:03.484Z,17.70
2017-09-30T01:51:32.943Z,17.70
2017-09-30T01:54:02.521Z,17.60
2017-09-30T01:56:33.793Z,17.60
2017-09-30T01:59:03.131Z,17.60
2017-09-30T02:01:32.249Z,17.60
2017-09-30T02:04:01.299Z,17.50
2017-09-30T02:06:30.597Z,17.50
2017-09-30T02:09:00.294Z,17.40
2017-09-30T02:11:29.633Z,17.30
2017-09-30T02:13:59.346Z,17.20
2017-09-30T02:16:28.570Z,17.20
2017-09-30T02:18:58.045Z,17.10
2017-09-30T02:21:27.449Z,17.10
2017-09-30T02:23:56.509Z,16.90
2017-09-30T02:26:25.983Z,16.80
2017-09-30T02:28:57.193Z,16.80
2017-09-30T02:31:26.298Z,16.70
2017-09-30T02:33:55.438Z,16.80
2017-09-30T02:36:24.776Z,16.60
2017-09-30T02:38:54.177Z,16.60
2017-09-30T02:41:23.546Z,16.50
2017-09-30T02:43:52.917Z,16.50
2017-09-30T02:46:22.368Z,16.50
2017-09-30T02:48:52.025Z,16.60
2017-09-30T02:51:21.388Z,16.60
2017-09-30T02:53:50.813Z,16.60
2017-09-30T02:56:20.046Z,16.60
2017-09-30T02:58:50.830Z,16.40
2017-09-30T03:01:20.131Z,16.40
2017-09-30T03:03:49.457Z,16.40
2017-09-30T03:06:18.863Z,16.30
2017-09-30T03:08:48.076Z,16.20
2017-09-30T03:11:17.329Z,16.10
2017-09-30T03:13:46.710Z,15.80
2017-09-30T03:16:16.731Z,15.60
2017-09-30T03:18:46.291Z,15.60
2017-09-30T03:21:16.752Z,15.60
2017-09-30T03:23:47.825Z,15.40
2017-09-30T03:26:17.561Z,15.40
2017-09-30T03:28:46.793Z,15.30
2017-09-30T03:31:16.739Z,15.30
2017-09-30T03:33:46.134Z,15.20
2017-09-30T03:36:15.338Z,15.30
2017-09-30T03:38:44.713Z,15.30
2017-09-30T03:41:15.021Z,15.30
2017-09-30T03:43:44.453Z,15.30
2017-09-30T03:46:14.508Z,15.20
2017-09-30T03:48:44.757Z,15.10
2017-09-30T03:51:13.886Z,15.10
2017-09-30T03:53:44.101Z,14.90
2017-09-30T03:56:14.194Z,14.80
2017-09-30T03:58:43.447Z,14.80
2017-09-30T04:01:13.480Z,14.70
2017-09-30T04:03:42.798Z,14.50
2017-09-30T04:06:12.064Z,14.40
2017-09-30T04:08:41.240Z,14.20
2017-09-30T04:11:11.506Z,14.00
2017-09-30T04:13:41.019Z,14.00
2017-09-30T04:16:10.290Z,13.90
2017-09-30T04:18:39.557Z,13.70
2017-09-30T04:21:08.966Z,13.70
2017-09-30T04:23:38.589Z,13.60
2017-09-30T04:26:08.519Z,13.40
2017-09-30T04:28:38.095Z,13.40
2017-09-30T04:31:07.021Z,13.30
2017-09-30T04:33:36.262Z,13.20
2017-09-30T04:36:05.698Z,13.10
2017-09-30T04:38:35.743Z,13.10
2017-09-30T04:41:05.028Z,13.10
2017-09-30T04:43:34.347Z,13.00
2017-09-30T04:46:03.774Z,12.90
2017-09-30T04:48:33.010Z,12.90
2017-09-30T04:51:03.046Z,12.80
2017-09-30T04:53:33.220Z,12.80
2017-09-30T04:56:02.989Z,12.70
2017-09-30T04:58:32.581Z,12.80
2017-09-30T05:01:02.025Z,12.70
2017-09-30T05:03:33.451Z,12.60
2017-09-30T05:06:02.707Z,12.60
2017-09-30T05:08:32.021Z,12.60
2017-09-30T05:11:01.392Z,12.50
2017-09-30T05:13:30.694Z,12.50
2017-09-30T05:16:00.173Z,12.50
2017-09-30T05:18:29.687Z,12.30
2017-09-30T05:20:59.230Z,12.30
2017-09-30T05:23:28.347Z,12.30
2017-09-30T05:25:57.562Z,12.20
2017-09-30T05:28:27.110Z,12.20
2017-09-30T05:30:56.377Z,12.20
2017-09-30T05:33:26.583Z,12.10
2017-09-30T05:35:56.907Z,12.10
2017-09-30T05:38:27.022Z,12.00
2017-09-30T05:40:57.974Z,11.90
2017-09-30T05:43:27.214Z,11.90
2017-09-30T05:45:56.619Z,11.90
2017-09-30T05:48:25.801Z,11.90
2017-09-30T05:50:55.951Z,11.80
2017-09-30T05:53:25.199Z,11.70
2017-09-30T05:55:54.650Z,11.60
2017-09-30T05:58:23.779Z,11.60
2017-09-30T06:00:54.249Z,11.50
2017-09-30T06:03:23.528Z,11.50
2017-09-30T06:05:54.120Z,11.40
2017-09-30T06:08:23.616Z,11.40
2017-09-30T06:10:53.791Z,11.50
2017-09-30T06:13:23.236Z,11.50
2017-09-30T06:15:52.754Z,11.40
2017-09-30T06:18:22.005Z,11.40
2017-09-30T06:20:51.088Z,11.10
2017-09-30T06:23:20.562Z,11.40
2017-09-30T06:25:49.683Z,11.30
2017-09-30T06:28:19.214Z,11.20
2017-09-30T06:30:48.534Z,11.20
2017-09-30T06:33:18.035Z,11.10
2017-09-30T06:35:47.319Z,11.00
2017-09-30T06:38:16.688Z,11.00
2017-09-30T06:40:46.210Z,11.00
2017-09-30T06:43:15.118Z,10.90
2017-09-30T06:45:43.896Z,10.90
2017-09-30T06:48:12.748Z,10.90
2017-09-30T06:50:41.525Z,11.10
2017-09-30T06:53:10.297Z,11.20
2017-09-30T06:55:39.554Z,10.90
2017-09-30T06:58:08.944Z,11.00
2017-09-30T07:00:39.079Z,11.00
2017-09-30T07:03:08.299Z,10.90
2017-09-30T07:05:37.466Z,10.60
2017-09-30T07:08:07.536Z,10.80
2017-09-30T07:10:36.827Z,11.10
2017-09-30T07:13:06.129Z,10.80
2017-09-30T07:15:35.714Z,10.90
2017-09-30T07:18:04.943Z,10.90
2017-09-30T07:20:34.135Z,10.90
2017-09-30T07:23:03.385Z,10.80
2017-09-30T07:25:33.971Z,10.80
2017-09-30T07:28:03.237Z,10.80
2017-09-30T07:30:32.551Z,11.20
2017-09-30T07:33:01.777Z,10.70
2017-09-30T07:35:31.124Z,10.90
2017-09-30T07:38:00.420Z,10.80
2017-09-30T07:40:29.900Z,10.70
2017-09-30T07:42:59.129Z,10.70
2017-09-30T07:45:29.199Z,10.70
2017-09-30T07:47:58.469Z,10.70
2017-09-30T07:50:27.810Z,10.60
2017-09-30T07:52:57.259Z,10.70
2017-09-30T07:55:27.413Z,10.80
2017-09-30T07:57:56.915Z,10.70
2017-09-30T08:00:26.631Z,10.60
2017-09-30T08:02:57.467Z,10.70
2017-09-30T08:05:26.899Z,10.70
2017-09-30T08:07:57.027Z,10.60
2017-09-30T08:10:27.414Z,10.70
2017-09-30T08:12:57.455Z,10.70
2017-09-30T08:15:26.802Z,10.70
2017-09-30T08:17:55.973Z,10.80
2017-09-30T08:20:25.477Z,10.70
2017-09-30T08:22:54.677Z,10.70
2017-09-30T08:25:24.856Z,10.60
2017-09-30T08:27:54.274Z,10.70
2017-09-30T08:30:23.401Z,10.60
2017-09-30T08:32:52.619Z,10.60
2017-09-30T08:35:21.913Z,10.80
2017-09-30T08:37:51.910Z,10.80
2017-09-30T08:40:21.415Z,10.70
2017-09-30T08:42:50.820Z,10.60
2017-09-30T08:45:20.337Z,10.70
2017-09-30T08:47:49.533Z,10.60
2017-09-30T08:50:18.687Z,10.50
2017-09-30T08:52:49.052Z,10.50
2017-09-30T08:55:19.467Z,10.50
2017-09-30T08:57:48.763Z,10.50
2017-09-30T09:00:18.020Z,10.70
2017-09-30T09:02:47.352Z,10.20
2017-09-30T09:05:16.691Z,10.10
2017-09-30T09:07:45.810Z,10.20
2017-09-30T09:10:15.274Z,10.10
2017-09-30T09:12:45.233Z,10.10
2017-09-30T09:15:14.667Z,10.10
2017-09-30T09:17:43.890Z,10.20
2017-09-30T09:20:13.131Z,10.20
2017-09-30T09:22:42.194Z,10.20
2017-09-30T09:25:12.307Z,10.30
2017-09-30T09:27:41.546Z,10.20
2017-09-30T09:30:11.055Z,10.20
2017-09-30T09:32:40.142Z,10.20
2017-09-30T09:35:09.850Z,10.20
2017-09-30T09:37:39.382Z,10.10
2017-09-30T09:40:09.683Z,10.10
2017-09-30T09:42:39.040Z,10.30
2017-09-30T09:45:09.283Z,10.20
2017-09-30T09:47:39.469Z,10.50
2017-09-30T09:50:08.817Z,10.50
2017-09-30T09:52:38.805Z,10.50
2017-09-30T09:55:08.870Z,10.30
2017-09-30T09:57:37.966Z,10.40
2017-09-30T10:00:07.465Z,10.50
2017-09-30T10:02:37.467Z,10.30
2017-09-30T10:05:08.283Z,10.20
2017-09-30T10:07:37.908Z,10.20
2017-09-30T10:10:08.123Z,10.30
2017-09-30T10:12:38.064Z,10.30
2017-09-30T10:15:08.179Z,10.20
2017-09-30T10:17:38.171Z,10.20
2017-09-30T10:20:06.887Z,10.50
2017-09-30T10:22:36.098Z,10.30
2017-09-30T10:25:05.184Z,10.10
2017-09-30T10:27:34.556Z,10.20
2017-09-30T10:30:03.991Z,10.10
2017-09-30T10:32:33.520Z,10.20
2017-09-30T10:35:03.478Z,10.20
2017-09-30T10:37:32.931Z,10.30
2017-09-30T10:40:02.001Z,10.50
2017-09-30T10:42:31.333Z,10.50
2017-09-30T10:45:00.794Z,10.60
2017-09-30T10:47:30.656Z,10.60
2017-09-30T10:50:00.095Z,10.60
2017-09-30T10:52:29.375Z,10.70
2017-09-30T10:54:58.771Z,10.80
2017-09-30T10:57:28.756Z,11.00
2017-09-30T10:59:58.170Z,10.90
2017-09-30T11:02:27.344Z,11.00
2017-09-30T11:04:56.736Z,11.00
2017-09-30T11:07:26.844Z,11.10
2017-09-30T11:09:56.258Z,11.10
2017-09-30T11:12:26.366Z,11.30
2017-09-30T11:14:55.881Z,11.20
2017-09-30T11:17:26.005Z,11.30
2017-09-30T11:19:56.307Z,11.40
2017-09-30T11:22:25.449Z,11.40
2017-09-30T11:24:54.662Z,11.50
2017-09-30T11:27:23.871Z,11.60
2017-09-30T11:29:52.991Z,11.60
2017-09-30T11:32:22.197Z,11.80
2017-09-30T11:34:51.148Z,11.70
2017-09-30T11:37:20.250Z,11.70
2017-09-30T11:39:49.311Z,11.80
2017-09-30T11:42:18.871Z,11.70
2017-09-30T11:44:48.459Z,11.80
2017-09-30T11:47:17.544Z,12.00
2017-09-30T11:49:47.040Z,11.80
2017-09-30T11:52:16.646Z,11.80
2017-09-30T11:54:46.004Z,12.10
2017-09-30T11:57:15.294Z,11.90
2017-09-30T11:59:44.752Z,12.00
2017-09-30T12:02:14.094Z,12.00
2017-09-30T12:04:43.260Z,11.90
2017-09-30T12:07:12.514Z,12.00
2017-09-30T12:09:41.653Z,12.00
2017-09-30T12:12:10.918Z,12.00
2017-09-30T12:14:41.228Z,12.00
2017-09-30T12:17:11.107Z,12.00
2017-09-30T12:19:41.572Z,12.00
2017-09-30T12:22:10.889Z,12.00
2017-09-30T12:24:41.016Z,12.20
2017-09-30T12:27:10.180Z,12.00
2017-09-30T12:29:39.738Z,12.10
2017-09-30T12:32:08.890Z,12.20
2017-09-30T12:34:38.061Z,12.00
2017-09-30T12:37:07.422Z,12.00
2017-09-30T12:39:37.036Z,12.00
2017-09-30T12:42:06.465Z,12.10
2017-09-30T12:44:35.686Z,11.90
2017-09-30T12:47:05.071Z,11.90
2017-09-30T12:49:34.397Z,12.00
2017-09-30T12:52:03.775Z,12.00
2017-09-30T12:54:33.695Z,12.00
2017-09-30T12:57:02.752Z,12.00
2017-09-30T12:59:32.155Z,12.00
2017-09-30T13:02:01.462Z,12.00
2017-09-30T13:04:30.743Z,12.00
2017-09-30T13:06:59.895Z,12.00
2017-09-30T13:09:29.199Z,11.80
2017-09-30T13:11:58.556Z,11.70
2017-09-30T13:14:28.015Z,11.80
2017-09-30T13:16:57.283Z,11.90
2017-09-30T13:19:26.457Z,11.90
2017-09-30T13:21:56.535Z,11.90
2017-09-30T13:24:27.290Z,11.90
2017-09-30T13:26:56.683Z,11.80
2017-09-30T13:29:25.853Z,11.90
2017-09-30T13:31:55.359Z,11.90
2017-09-30T13:34:24.466Z,11.70
2017-09-30T13:36:53.834Z,12.00
2017-09-30T13:39:23.096Z,12.00
2017-09-30T13:41:52.279Z,12.00
2017-09-30T13:44:21.488Z,12.10
2017-09-30T13:46:51.243Z,11.80
2017-09-30T13:49:20.528Z,12.00
2017-09-30T13:51:49.875Z,12.00
2017-09-30T13:54:19.069Z,12.00
2017-09-30T13:56:48.371Z,12.10
2017-09-30T13:59:17.570Z,12.10
2017-09-30T14:01:46.754Z,12.00
2017-09-30T14:04:16.104Z,12.00
2017-09-30T14:06:45.980Z,12.00
2017-09-30T14:09:15.417Z,12.00
2017-09-30T14:11:44.921Z,11.80
2017-09-30T14:14:14.762Z,12.00
2017-09-30T14:16:43.888Z,12.00
2017-09-30T14:19:13.187Z,11.80
2017-09-30T14:21:42.817Z,12.10
2017-09-30T14:24:13.271Z,12.10
2017-09-30T14:26:43.281Z,12.20
2017-09-30T14:29:12.609Z,12.10
2017-09-30T14:31:41.835Z,12.10
2017-09-30T14:34:11.469Z,11.90
2017-09-30T14:36:41.141Z,12.10
2017-09-30T14:39:11.039Z,12.10
2017-09-30T14:41:40.393Z,12.10
2017-09-30T14:44:09.689Z,12.20
2017-09-30T14:46:38.858Z,12.30
2017-09-30T14:49:08.361Z,12.10
2017-09-30T14:51:37.668Z,12.20
2017-09-30T14:54:07.264Z,12.30
2017-09-30T14:56:36.549Z,12.30
2017-09-30T14:59:05.965Z,12.30
2017-09-30T15:01:35.520Z,12.30
2017-09-30T15:04:04.668Z,12.30
2017-09-30T15:06:35.264Z,12.30
2017-09-30T15:09:04.890Z,12.50
2017-09-30T15:11:34.262Z,12.30
2017-09-30T15:14:03.706Z,12.30
2017-09-30T15:16:33.301Z,12.50
2017-09-30T15:19:02.604Z,12.40
2017-09-30T15:21:31.857Z,12.20
2017-09-30T15:24:01.045Z,12.40
2017-09-30T15:26:31.014Z,12.60
2017-09-30T15:29:00.960Z,12.60
2017-09-30T15:31:30.324Z,12.60
2017-09-30T15:34:00.507Z,12.80
2017-09-30T15:36:29.662Z,12.80
2017-09-30T15:38:59.382Z,12.90
2017-09-30T15:41:28.736Z,13.00
2017-09-30T15:43:58.859Z,13.20
2017-09-30T15:46:27.959Z,13.20
2017-09-30T15:48:57.544Z,13.30
2017-09-30T15:51:26.967Z,13.40
2017-09-30T15:53:56.194Z,13.50
2017-09-30T15:56:25.314Z,13.60
2017-09-30T15:58:54.845Z,13.50
2017-09-30T16:01:24.091Z,13.60
2017-09-30T16:03:54.627Z,13.90
2017-09-30T16:06:24.208Z,13.80
2017-09-30T16:08:53.290Z,14.10
2017-09-30T16:11:22.827Z,14.30
2017-09-30T16:13:52.907Z,14.60
2017-09-30T16:16:22.906Z,14.60
2017-09-30T16:18:52.315Z,14.80
2017-09-30T16:21:21.651Z,15.00
2017-09-30T16:23:51.432Z,14.90
2017-09-30T16:26:20.911Z,14.90
2017-09-30T16:28:51.121Z,15.10
2017-09-30T16:31:20.755Z,15.50
2017-09-30T16:33:50.140Z,15.70
2017-09-30T16:36:19.544Z,15.80
2017-09-30T16:38:49.067Z,16.00
2017-09-30T16:41:18.367Z,16.00
2017-09-30T16:43:47.620Z,16.30
2017-09-30T16:46:16.739Z,16.50
2017-09-30T16:48:46.073Z,16.70
2017-09-30T16:51:15.606Z,16.90
2017-09-30T16:53:45.093Z,17.00
2017-09-30T16:56:15.728Z,17.00
2017-09-30T16:58:45.170Z,17.10
2017-09-30T17:01:15.194Z,17.10
2017-09-30T17:03:44.672Z,17.10
2017-09-30T17:06:14.921Z,17.30
2017-09-30T17:08:45.234Z,17.30
2017-09-30T17:11:14.538Z,17.30
2017-09-30T17:13:43.969Z,17.40
2017-09-30T17:16:13.360Z,17.70
2017-09-30T17:18:42.925Z,17.70
2017-09-30T17:21:12.128Z,17.90
2017-09-30T17:23:41.279Z,17.60
2017-09-30T17:26:10.659Z,17.50
2017-09-30T17:28:40.349Z,17.40
2017-09-30T17:31:10.518Z,17.20
2017-09-30T17:33:39.849Z,17.10
2017-09-30T17:36:09.497Z,17.00
2017-09-30T17:38:38.864Z,16.90
2017-09-30T17:41:08.530Z,16.80
2017-09-30T17:43:37.921Z,16.70
2017-09-30T17:46:07.312Z,16.80
2017-09-30T17:48:37.879Z,17.00
2017-09-30T17:51:07.083Z,16.90
2017-09-30T17:53:36.406Z,16.90
2017-09-30T17:56:05.741Z,17.00
2017-09-30T17:58:35.485Z,17.30
2017-09-30T18:01:05.131Z,17.30
2017-09-30T18:03:34.616Z,17.40
2017-09-30T18:06:04.019Z,17.50
2017-09-30T18:08:33.244Z,17.50
2017-09-30T18:11:02.265Z,17.40
2017-09-30T18:13:31.598Z,17.60
2017-09-30T18:16:00.996Z,17.70
2017-09-30T18:18:30.742Z,17.60
2017-09-30T18:20:59.968Z,17.60
2017-09-30T18:23:30.780Z,17.30
2017-09-30T18:26:00.136Z,17.10
2017-09-30T18:28:29.266Z,17.20
2017-09-30T18:30:59.319Z,17.20
2017-09-30T18:33:29.278Z,17.10
2017-09-30T18:35:58.631Z,17.00
2017-09-30T18:38:27.813Z,17.10
2017-09-30T18:40:57.086Z,17.10
2017-09-30T18:43:26.370Z,17.20
2017-09-30T18:45:56.015Z,17.30
2017-09-30T18:48:25.285Z,17.30
2017-09-30T18:50:54.462Z,17.40
2017-09-30T18:53:24.074Z,17.50
2017-09-30T18:55:53.369Z,17.60
2017-09-30T18:58:22.786Z,17.80
2017-09-30T19:00:52.059Z,17.80
2017-09-30T19:03:21.316Z,17.90
2017-09-30T19:05:51.391Z,17.80
2017-09-30T19:08:21.771Z,17.60
2017-09-30T19:10:51.030Z,17.60
2017-09-30T19:13:20.483Z,17.60
2017-09-30T19:15:49.889Z,17.60
2017-09-30T19:18:19.033Z,17.80
2017-09-30T19:20:48.498Z,17.70
2017-09-30T19:23:17.587Z,17.80
2017-09-30T19:25:46.613Z,17.90
2017-09-30T19:28:15.776Z,18.10
2017-09-30T19:30:45.157Z,18.30
2017-09-30T19:33:15.987Z,18.70
2017-09-30T19:35:46.445Z,18.70
2017-09-30T19:38:16.280Z,18.90
2017-09-30T19:40:46.641Z,19.20
2017-09-30T19:43:15.928Z,19.20
2017-09-30T19:45:45.394Z,19.20
2017-09-30T19:48:14.816Z,19.10
2017-09-30T19:50:44.014Z,19.10
2017-09-30T19:53:13.352Z,19.10
2017-09-30T19:55:42.547Z,19.10
2017-09-30T19:58:11.732Z,19.10
2017-09-30T20:00:40.892Z,19.00
2017-09-30T20:03:10.430Z,19.00
2017-09-30T20:05:39.880Z,18.90
2017-09-30T20:08:09.272Z,18.90
2017-09-30T20:10:38.740Z,18.90
2017-09-30T20:13:08.122Z,18.70
2017-09-30T20:15:37.507Z,18.50
2017-09-30T20:18:06.778Z,18.40
2017-09-30T20:20:36.279Z,18.30
2017-09-30T20:23:05.587Z,18.40
2017-09-30T20:25:34.790Z,18.50
2017-09-30T20:28:04.143Z,18.50
2017-09-30T20:30:34.213Z,18.40
2017-09-30T20:33:03.782Z,18.40
2017-09-30T20:35:33.232Z,18.40
2017-09-30T20:38:03.240Z,18.40
2017-09-30T20:40:32.513Z,18.50
2017-09-30T20:43:01.698Z,18.50
2017-09-30T20:45:30.930Z,18.60
2017-09-30T20:48:00.317Z,18.90
2017-09-30T20:50:29.823Z,19.10
2017-09-30T20:52:59.010Z,19.00
2017-09-30T20:55:28.051Z,18.90
2017-09-30T20:57:57.219Z,18.80
2017-09-30T21:00:26.552Z,18.80
2017-09-30T21:02:55.894Z,18.70
2017-09-30T21:05:26.070Z,18.40
2017-09-30T21:07:55.522Z,18.40
2017-09-30T21:10:24.974Z,18.20
2017-09-30T21:12:54.375Z,18.10
2017-09-30T21:15:23.574Z,18.10
2017-09-30T21:17:52.891Z,18.00
2017-09-30T21:20:22.213Z,18.00
2017-09-30T21:22:52.161Z,18.00
2017-09-30T21:25:21.382Z,18.00
2017-09-30T21:27:51.550Z,18.10
2017-09-30T21:30:20.923Z,18.30
2017-09-30T21:32:50.142Z,18.50
2017-09-30T21:35:19.381Z,18.70
2017-09-30T21:37:48.773Z,19.10
2017-09-30T21:40:18.831Z,19.30
2017-09-30T21:42:48.032Z,19.50
2017-09-30T21:45:17.595Z,19.40
2017-09-30T21:47:47.322Z,19.40
2017-09-30T21:50:16.676Z,19.30
2017-09-30T21:52:45.915Z,19.30
2017-09-30T21:55:15.147Z,19.00
2017-09-30T21:57:44.481Z,19.00
2017-09-30T22:00:13.721Z,19.00
2017-09-30T22:02:43.063Z,18.90
2017-09-30T22:05:12.307Z,18.90
2017-09-30T22:07:41.530Z,18.90
2017-09-30T22:10:11.046Z,18.90
2017-09-30T22:12:40.238Z,18.90
2017-09-30T22:15:09.690Z,18.90
2017-09-30T22:17:39.059Z,18.80
2017-09-30T22:20:08.193Z,18.90
2017-09-30T22:22:38.221Z,19.00
2017-09-30T22:25:08.525Z,19.00
2017-09-30T22:27:37.787Z,19.00
2017-09-30T22:30:07.074Z,19.00
2017-09-30T22:32:36.463Z,18.90
2017-09-30T22:35:06.383Z,18.90
2017-09-30T22:37:35.802Z,18.80
2017-09-30T22:40:04.834Z,18.90
2017-09-30T22:42:35.994Z,19.10
2017-09-30T22:45:06.348Z,19.10
2017-09-30T22:47:35.800Z,19.10
2017-09-30T22:50:05.092Z,19.10
2017-09-30T22:52:34.443Z,19.10
2017-09-30T22:55:04.573Z,19.00
2017-09-30T22:57:33.925Z,19.00
2017-09-30T23:00:03.406Z,19.00
2017-09-30T23:02:32.818Z,18.90
2017-09-30T23:05:02.112Z,18.80
2017-09-30T23:07:31.356Z,18.90
2017-09-30T23:10:01.505Z,19.10
2017-09-30T23:12:30.928Z,19.00
2017-09-30T23:15:00.386Z,18.90
2017-09-30T23:17:29.699Z,18.90
2017-09-30T23:19:59.135Z,18.80
2017-09-30T23:22:28.576Z,18.80
2017-09-30T23:24:57.911Z,18.90
2017-09-30T23:27:29.099Z,19.20
2017-09-30T23:29:58.798Z,19.20
2017-09-30T23:32:28.709Z,19.30
2017-09-30T23:34:59.167Z,19.30
2017-09-30T23:37:28.563Z,19.40
2017-09-30T23:39:57.843Z,19.40
2017-09-30T23:42:27.085Z,19.60
2017-09-30T23:44:57.665Z,19.80
2017-09-30T23:47:27.127Z,20.00
2017-09-30T23:49:56.598Z,20.20
2017-09-30T23:52:26.177Z,20.00
2017-09-30T23:54:55.667Z,20.00
2017-09-30T23:57:25.137Z,20.00
2017-09-30T23:59:54.341Z,20.00
